Time;durP1;ratioP1;P1;durP2;ratioP2;P2;SDS_P1;SDS_P2;PMS_P1;PMS_P2;Temp;Humidity;BMP_temperature;BMP_pressure;BME280_temperature;BME280_humidity;BME280_pressure;Samples;Min_cycle;Max_cycle;Signal;HPM_P1;HPM_P2
2022/06/14 00:00:54;;;;;;;4.23;1.90;;;;;;;;;;7401265;19;20137;-93
2022/06/14 00:03:42;;;;;;;2.20;2.00;;;;;;;;;;7397284;19;20133;-92
2022/06/14 00:06:20;;;;;;;4.60;2.17;;;;;;;;;;7396459;19;20489;-91
2022/06/14 00:09:08;;;;;;;4.50;2.47;;;;;;;;;;7395473;19;20133;-91
2022/06/14 00:11:46;;;;;;;7.67;2.00;;;;;;;;;;7396817;19;20133;-92
2022/06/14 01:20:17;;;;;;;2.63;1.93;;;;;;;;;;7400351;19;20196;-80
2022/06/14 01:22:43;;;;;;;3.80;1.73;;;;;;;;;;7397517;19;20159;-82
2022/06/14 01:25:10;;;;;;;2.93;1.90;;;;;;;;;;7399800;19;20124;-81
2022/06/14 01:27:37;;;;;;;2.60;1.60;;;;;;;;;;7394635;19;20537;-80
2022/06/14 01:30:06;;;;;;;2.13;1.80;;;;;;;;;;7396812;19;20144;-83
2022/06/14 01:32:34;;;;;;;4.77;2.40;;;;;;;;;;7396073;19;20611;-83
2022/06/14 13:32:24;;;;;;;2.30;2.10;;;;;;;;;;7400663;19;20387;-89
2022/06/14 13:34:50;;;;;;;2.65;2.00;;;;;;;;;;7404258;19;20193;-88
2022/06/14 13:37:21;;;;;;;2.20;2.00;;;;;;;;;;7420898;19;20125;-86
2022/06/14 13:39:52;;;;;;;2.17;1.98;;;;;;;;;;7416832;19;20172;-88
2022/06/14 13:42:25;;;;;;;4.68;1.88;;;;;;;;;;7412453;19;20145;-88
2022/06/14 13:44:56;;;;;;;2.17;1.98;;;;;;;;;;7406923;19;20136;-89
2022/06/14 13:47:28;;;;;;;2.35;2.00;;;;;;;;;;7421185;19;20165;-87
2022/06/14 13:50:24;;;;;;;3.00;1.90;;;;;;;;;;7422572;19;20152;-89
2022/06/14 13:52:55;;;;;;;1.95;1.75;;;;;;;;;;7422310;19;20149;-88
2022/06/14 13:55:35;;;;;;;3.47;2.00;;;;;;;;;;7401086;19;20212;-89
2022/06/14 13:58:09;;;;;;;2.10;1.88;;;;;;;;;;7395089;19;20152;-90
2022/06/14 14:00:50;;;;;;;4.55;2.20;;;;;;;;;;7398334;19;20157;-90
2022/06/14 14:03:34;;;;;;;5.57;2.22;;;;;;;;;;7399341;19;20136;-91
2022/06/14 14:06:11;;;;;;;2.33;2.13;;;;;;;;;;7395984;19;20157;-90
2022/06/14 14:08:56;;;;;;;3.58;2.00;;;;;;;;;;7397741;19;20668;-90
2022/06/14 14:11:30;;;;;;;2.50;2.05;;;;;;;;;;7397105;19;20160;-88
2022/06/14 14:14:06;;;;;;;3.88;2.00;;;;;;;;;;7409803;19;20132;-88
2022/06/14 14:16:36;;;;;;;2.55;1.73;;;;;;;;;;7406128;19;20152;-90
2022/06/14 14:19:14;;;;;;;2.75;2.00;;;;;;;;;;7409943;19;20191;-85
2022/06/14 14:21:44;;;;;;;8.85;2.30;;;;;;;;;;7418676;19;20125;-87
2022/06/14 14:24:44;;;;;;;2.72;1.90;;;;;;;;;;7417868;19;20141;-88
2022/06/14 14:27:10;;;;;;;1.80;1.70;;;;;;;;;;7408043;19;20153;-91
2022/06/14 14:29:36;;;;;;;2.75;2.17;;;;;;;;;;7401419;19;20185;-90
2022/06/14 14:32:07;;;;;;;2.70;2.50;;;;;;;;;;7402578;19;20643;-91
2022/06/14 14:34:39;;;;;;;3.42;2.00;;;;;;;;;;7395303;19;20552;-91
2022/06/14 14:37:08;;;;;;;3.28;1.90;;;;;;;;;;7402548;19;20495;-90
2022/06/14 14:39:38;;;;;;;2.72;2.03;;;;;;;;;;7402124;19;20185;-91
2022/06/14 14:42:41;;;;;;;2.55;1.80;;;;;;;;;;7401054;19;20137;-91
2022/06/14 14:45:16;;;;;;;2.92;2.30;;;;;;;;;;7407225;19;20147;-88
2022/06/14 14:47:54;;;;;;;3.50;2.17;;;;;;;;;;7408601;19;20637;-90
2022/06/14 14:50:29;;;;;;;4.50;2.10;;;;;;;;;;7401467;19;20535;-91
2022/06/14 14:53:00;;;;;;;4.95;2.30;;;;;;;;;;7399785;19;20148;-92
2022/06/14 14:55:36;;;;;;;3.58;1.90;;;;;;;;;;7404193;19;20516;-91
2022/06/14 14:58:10;;;;;;;2.70;2.15;;;;;;;;;;7403508;19;20135;-93
2022/06/14 15:06:18;;;;;;;2.80;2.22;;;;;;;;;;7404670;19;20167;-91
2022/06/14 15:08:50;;;;;;;3.03;2.00;;;;;;;;;;7403504;19;20133;-91
2022/06/14 15:11:21;;;;;;;2.03;1.90;;;;;;;;;;7400888;19;20161;-91
2022/06/14 15:13:47;;;;;;;3.30;2.00;;;;;;;;;;7402195;19;20637;-92
2022/06/14 15:16:27;;;;;;;2.58;1.88;;;;;;;;;;7400184;19;20190;-91
2022/06/14 15:21:51;;;;;;;5.25;2.58;;;;;;;;;;7405313;19;20154;-90
2022/06/14 15:24:28;;;;;;;2.40;2.20;;;;;;;;;;7399454;19;20163;-92
2022/06/14 15:26:58;;;;;;;2.40;2.20;;;;;;;;;;7401981;19;20144;-90
2022/06/14 15:29:47;;;;;;;2.60;1.92;;;;;;;;;;7417701;19;20168;-90
2022/06/14 15:32:13;;;;;;;3.38;2.25;;;;;;;;;;7432473;19;20169;-89
2022/06/14 15:34:49;;;;;;;3.33;2.22;;;;;;;;;;7433328;19;20166;-91
2022/06/14 15:37:31;;;;;;;2.47;2.28;;;;;;;;;;7431494;19;20152;-89
2022/06/14 15:39:59;;;;;;;2.47;2.03;;;;;;;;;;7428327;19;20460;-90
2022/06/14 15:42:33;;;;;;;3.10;1.85;;;;;;;;;;7428906;19;20122;-90
2022/06/14 15:45:00;;;;;;;2.10;2.00;;;;;;;;;;7430198;19;20576;-90
2022/06/14 15:47:34;;;;;;;3.80;2.10;;;;;;;;;;7428261;19;20148;-93
2022/06/14 15:50:00;;;;;;;4.20;1.98;;;;;;;;;;7430975;19;20200;-90
2022/06/14 15:52:28;;;;;;;2.60;1.80;;;;;;;;;;7433019;19;20113;-91
2022/06/14 15:55:02;;;;;;;2.70;1.90;;;;;;;;;;7428700;19;20125;-88
2022/06/14 15:57:30;;;;;;;4.30;2.10;;;;;;;;;;7430370;19;20125;-89
2022/06/14 15:59:56;;;;;;;2.47;2.05;;;;;;;;;;7429852;19;20203;-91
2022/06/14 16:02:31;;;;;;;3.03;2.10;;;;;;;;;;7431245;19;20125;-90
2022/06/14 16:04:58;;;;;;;3.72;2.10;;;;;;;;;;7420435;19;20140;-90
2022/06/14 16:10:36;;;;;;;3.97;2.17;;;;;;;;;;7404321;19;20188;-82
2022/06/14 16:13:05;;;;;;;2.17;1.98;;;;;;;;;;7390999;19;20164;-81
2022/06/14 16:15:36;;;;;;;4.03;2.00;;;;;;;;;;7396959;19;20515;-81
2022/06/14 16:18:21;;;;;;;3.28;2.08;;;;;;;;;;7388854;19;20195;-81
2022/06/14 16:20:59;;;;;;;2.17;1.63;;;;;;;;;;7391865;19;20133;-81
2022/06/14 16:23:25;;;;;;;4.57;2.20;;;;;;;;;;7398365;19;20160;-81
2022/06/14 16:25:55;;;;;;;2.30;2.10;;;;;;;;;;7385194;19;20172;-82
2022/06/14 16:28:41;;;;;;;4.45;2.00;;;;;;;;;;7387749;19;20498;-82
2022/06/14 16:31:27;;;;;;;8.20;2.70;;;;;;;;;;7369238;19;20985;-82
2022/06/14 16:33:57;;;;;;;4.28;2.08;;;;;;;;;;7394988;19;20156;-80
2022/06/14 16:36:33;;;;;;;3.15;2.65;;;;;;;;;;7390918;19;21053;-80
2022/06/14 16:39:11;;;;;;;2.67;1.80;;;;;;;;;;7371113;19;20169;-80
2022/06/14 16:41:43;;;;;;;3.33;1.98;;;;;;;;;;7376201;19;20185;-80
2022/06/14 16:44:25;;;;;;;5.55;1.98;;;;;;;;;;7386657;19;20169;-80
2022/06/14 16:46:51;;;;;;;2.97;1.77;;;;;;;;;;7383252;19;20179;-82
2022/06/14 16:49:20;;;;;;;2.53;1.80;;;;;;;;;;7386708;19;20204;-80
2022/06/14 16:51:51;;;;;;;4.28;2.00;;;;;;;;;;7392287;19;20545;-80
2022/06/14 16:54:17;;;;;;;5.18;1.85;;;;;;;;;;7389425;19;20149;-80
2022/06/14 16:56:43;;;;;;;2.22;1.80;;;;;;;;;;7386067;19;20167;-80
2022/06/14 16:59:19;;;;;;;4.28;1.70;;;;;;;;;;7386856;19;20147;-80
2022/06/14 17:01:51;;;;;;;2.90;1.75;;;;;;;;;;7406123;19;20156;-80
2022/06/14 17:04:36;;;;;;;2.10;1.83;;;;;;;;;;7420134;19;20184;-84
2022/06/14 17:07:10;;;;;;;3.70;1.67;;;;;;;;;;7419788;19;20189;-80
2022/06/14 17:09:36;;;;;;;4.10;1.92;;;;;;;;;;7412990;19;20144;-81
2022/06/14 17:12:05;;;;;;;2.50;1.70;;;;;;;;;;7418501;19;20142;-80
2022/06/14 17:14:46;;;;;;;2.80;1.70;;;;;;;;;;7412854;19;20164;-80
2022/06/14 17:17:30;;;;;;;1.83;1.58;;;;;;;;;;7409618;19;20180;-81
2022/06/14 17:19:59;;;;;;;4.05;1.60;;;;;;;;;;7404602;19;20163;-80
2022/06/14 17:22:25;;;;;;;3.35;1.30;;;;;;;;;;7416519;19;20149;-81
2022/06/14 17:24:51;;;;;;;2.58;1.50;;;;;;;;;;7414805;19;20147;-81
2022/06/14 17:30:31;;;;;;;1.73;1.40;;;;;;;;;;7426616;19;20136;-81
2022/06/14 17:33:07;;;;;;;3.78;1.70;;;;;;;;;;7417066;19;20149;-80
2022/06/14 17:35:36;;;;;;;2.28;1.45;;;;;;;;;;7399587;19;20173;-80
2022/06/14 17:38:07;;;;;;;3.50;1.65;;;;;;;;;;7402172;19;20137;-80
2022/06/14 17:40:33;;;;;;;3.38;1.60;;;;;;;;;;7390675;19;20167;-80
2022/06/14 17:43:03;;;;;;;3.28;2.55;;;;;;;;;;7394319;19;20816;-80
2022/06/14 17:45:32;;;;;;;3.50;1.98;;;;;;;;;;7394537;19;20182;-80
2022/06/14 17:48:14;;;;;;;2.70;1.80;;;;;;;;;;7417889;19;20201;-81
2022/06/14 17:50:44;;;;;;;2.45;1.60;;;;;;;;;;7424949;19;20141;-81
2022/06/14 17:53:21;;;;;;;2.08;1.80;;;;;;;;;;7426454;19;20209;-81
2022/06/14 17:55:58;;;;;;;1.63;1.52;;;;;;;;;;7425243;19;20168;-80
2022/06/14 17:58:36;;;;;;;5.80;1.73;;;;;;;;;;7423883;19;20165;-80
2022/06/14 18:01:02;;;;;;;2.65;1.65;;;;;;;;;;7401522;19;20448;-80
2022/06/14 18:03:28;;;;;;;2.08;1.73;;;;;;;;;;7396331;19;20606;-79
2022/06/14 18:06:00;;;;;;;1.63;1.52;;;;;;;;;;7389576;19;20168;-80
2022/06/14 18:08:33;;;;;;;3.05;1.67;;;;;;;;;;7385179;19;20479;-80
2022/06/14 18:10:59;;;;;;;2.97;1.58;;;;;;;;;;7388468;19;20155;-80
2022/06/14 18:13:28;;;;;;;1.50;1.40;;;;;;;;;;7402784;19;20164;-80
2022/06/14 18:15:54;;;;;;;2.70;1.70;;;;;;;;;;7398984;19;20133;-80
2022/06/14 18:18:28;;;;;;;4.25;1.67;;;;;;;;;;7400318;19;20208;-80
2022/06/14 18:21:01;;;;;;;2.78;1.48;;;;;;;;;;7399658;19;20196;-80
2022/06/14 18:23:30;;;;;;;1.45;1.35;;;;;;;;;;7401034;19;20524;-80
2022/06/14 18:25:56;;;;;;;4.00;1.55;;;;;;;;;;7399388;19;20149;-79
2022/06/14 18:28:34;;;;;;;1.77;1.40;;;;;;;;;;7396686;19;20149;-80
2022/06/14 18:31:04;;;;;;;2.00;1.70;;;;;;;;;;7398143;19;20152;-80
2022/06/14 18:33:32;;;;;;;2.30;1.65;;;;;;;;;;7397557;19;20204;-80
2022/06/14 18:36:12;;;;;;;2.17;1.73;;;;;;;;;;7398250;19;20173;-80
2022/06/14 18:38:44;;;;;;;3.47;1.67;;;;;;;;;;7398324;19;20159;-80
2022/06/14 18:41:26;;;;;;;3.88;1.70;;;;;;;;;;7398544;19;20164;-80
2022/06/14 18:44:07;;;;;;;6.22;2.08;;;;;;;;;;7397703;19;20153;-79
2022/06/14 18:46:35;;;;;;;1.88;1.63;;;;;;;;;;7397640;19;20212;-80
2022/06/14 18:49:02;;;;;;;3.00;1.90;;;;;;;;;;7397531;19;20145;-80
2022/06/14 18:51:29;;;;;;;2.97;1.90;;;;;;;;;;7400680;19;20145;-80
2022/06/14 18:54:15;;;;;;;2.78;1.80;;;;;;;;;;7398106;19;20160;-80
2022/06/14 18:56:44;;;;;;;2.83;2.28;;;;;;;;;;7396157;19;20177;-80
2022/06/14 18:59:12;;;;;;;2.70;1.90;;;;;;;;;;7396102;19;20173;-79
2022/06/14 19:01:38;;;;;;;2.88;2.00;;;;;;;;;;7397253;19;20573;-80
2022/06/14 19:04:11;;;;;;;2.60;2.08;;;;;;;;;;7397235;19;20149;-79
2022/06/14 19:06:55;;;;;;;2.28;2.00;;;;;;;;;;7395171;19;20172;-81
2022/06/14 19:09:35;;;;;;;2.20;1.67;;;;;;;;;;7393467;19;20622;-80
2022/06/14 19:12:04;;;;;;;2.60;2.00;;;;;;;;;;7406000;19;20148;-82
2022/06/14 19:14:37;;;;;;;3.80;1.80;;;;;;;;;;7423688;19;20136;-82
2022/06/14 19:17:06;;;;;;;3.63;1.95;;;;;;;;;;7404984;19;20172;-80
2022/06/14 19:19:50;;;;;;;4.53;2.13;;;;;;;;;;7387612;19;20130;-83
2022/06/14 19:22:16;;;;;;;2.45;1.88;;;;;;;;;;7392140;19;20129;-80
2022/06/14 19:24:48;;;;;;;4.35;1.90;;;;;;;;;;7393717;19;20622;-80
2022/06/14 19:27:24;;;;;;;5.97;2.78;;;;;;;;;;7378057;19;20180;-80
2022/06/14 19:30:00;;;;;;;5.47;2.67;;;;;;;;;;7389568;19;21858;-80
2022/06/14 19:32:44;;;;;;;3.50;2.20;;;;;;;;;;7395293;19;20180;-82
2022/06/14 19:35:31;;;;;;;2.55;2.22;;;;;;;;;;7386669;19;20655;-81
2022/06/14 19:37:59;;;;;;;3.97;2.38;;;;;;;;;;7397183;19;20121;-80
2022/06/14 19:40:34;;;;;;;2.40;1.88;;;;;;;;;;7395768;19;20137;-80
2022/06/14 19:43:03;;;;;;;2.05;1.85;;;;;;;;;;7378818;19;20536;-82
2022/06/14 19:45:31;;;;;;;3.10;2.17;;;;;;;;;;7386613;19;20376;-80
2022/06/14 19:48:00;;;;;;;6.35;2.60;;;;;;;;;;7386027;19;20163;-80
2022/06/14 19:50:41;;;;;;;4.40;2.72;;;;;;;;;;7392101;19;20145;-80
2022/06/14 19:53:21;;;;;;;4.65;2.63;;;;;;;;;;7394748;19;20151;-81
2022/06/14 19:56:00;;;;;;;3.13;2.20;;;;;;;;;;7386032;19;20234;-80
2022/06/14 19:58:29;;;;;;;2.88;2.03;;;;;;;;;;7394073;19;20144;-81
2022/06/14 20:01:07;;;;;;;4.00;2.40;;;;;;;;;;7389715;19;20149;-80
2022/06/14 20:03:33;;;;;;;4.90;2.10;;;;;;;;;;7384390;19;20249;-80
2022/06/14 20:05:59;;;;;;;2.95;2.40;;;;;;;;;;7394858;19;20212;-80
2022/06/14 20:08:35;;;;;;;3.72;2.60;;;;;;;;;;7394936;19;20569;-80
2022/06/14 20:11:01;;;;;;;4.55;2.28;;;;;;;;;;7397600;19;20159;-80
2022/06/14 20:13:27;;;;;;;3.17;2.30;;;;;;;;;;7396364;19;20156;-80
2022/06/14 20:16:00;;;;;;;2.45;2.25;;;;;;;;;;7393014;19;20172;-80
2022/06/14 20:18:32;;;;;;;3.05;2.20;;;;;;;;;;7387788;19;20152;-80
2022/06/14 20:20:58;;;;;;;7.22;4.25;;;;;;;;;;7394983;19;20129;-83
2022/06/14 20:23:25;;;;;;;6.88;4.07;;;;;;;;;;7388489;19;20229;-81
2022/06/14 20:25:56;;;;;;;4.00;2.33;;;;;;;;;;7394360;19;20470;-80
2022/06/14 20:28:24;;;;;;;2.17;1.98;;;;;;;;;;7396940;19;20133;-86
2022/06/14 20:30:59;;;;;;;3.95;2.88;;;;;;;;;;7397752;19;20140;-81
2022/06/14 20:33:26;;;;;;;7.13;3.88;;;;;;;;;;7403930;19;20140;-82
2022/06/14 20:35:54;;;;;;;4.85;3.17;;;;;;;;;;7403915;19;20183;-83
2022/06/14 20:38:20;;;;;;;6.13;2.67;;;;;;;;;;7395569;19;20147;-81
2022/06/14 20:40:47;;;;;;;6.40;3.00;;;;;;;;;;7387332;19;20714;-82
2022/06/14 20:43:18;;;;;;;5.30;3.38;;;;;;;;;;7389708;19;20461;-80
2022/06/14 20:45:45;;;;;;;6.15;2.92;;;;;;;;;;7388640;19;20197;-81
2022/06/14 20:48:16;;;;;;;3.00;2.70;;;;;;;;;;7395892;19;20156;-80
2022/06/14 20:50:43;;;;;;;4.53;2.88;;;;;;;;;;7380386;19;20143;-84
2022/06/14 20:53:10;;;;;;;5.78;3.17;;;;;;;;;;7382831;19;20541;-80
2022/06/14 20:55:47;;;;;;;4.45;2.60;;;;;;;;;;7383540;19;20144;-80
2022/06/14 20:58:13;;;;;;;4.25;2.97;;;;;;;;;;7381758;19;20189;-80
2022/06/14 21:00:40;;;;;;;3.28;2.50;;;;;;;;;;7381973;19;20719;-83
2022/06/14 21:03:07;;;;;;;5.97;3.03;;;;;;;;;;7387535;19;20666;-80
2022/06/14 21:05:34;;;;;;;8.35;2.67;;;;;;;;;;7383620;19;20132;-83
2022/06/14 21:08:01;;;;;;;4.75;2.80;;;;;;;;;;7377572;19;20184;-80
2022/06/14 21:13:21;;;;;;;3.38;2.90;;;;;;;;;;7364371;19;20140;-83
2022/06/14 21:15:52;;;;;;;4.67;2.80;;;;;;;;;;7371752;19;20169;-79
2022/06/14 21:18:22;;;;;;;4.75;2.72;;;;;;;;;;7384106;19;20545;-80
2022/06/14 21:20:49;;;;;;;5.17;3.10;;;;;;;;;;7385383;19;20148;-80
2022/06/14 21:23:19;;;;;;;4.43;2.87;;;;;;;;;;7385018;19;20153;-80
2022/06/14 21:25:45;;;;;;;3.97;3.17;;;;;;;;;;7387548;19;20172;-80
2022/06/14 21:28:15;;;;;;;7.07;4.03;;;;;;;;;;7385657;19;20212;-81
2022/06/14 21:31:01;;;;;;;4.93;2.60;;;;;;;;;;7386792;19;20152;-82
2022/06/14 21:33:28;;;;;;;4.40;2.90;;;;;;;;;;7392331;19;20582;-81
2022/06/14 21:35:58;;;;;;;3.23;2.80;;;;;;;;;;7391484;19;20542;-82
2022/06/14 21:38:25;;;;;;;5.23;3.03;;;;;;;;;;7390597;19;20121;-80
2022/06/14 21:41:17;;;;;;;3.80;2.70;;;;;;;;;;7386123;19;20145;-82
2022/06/14 21:43:45;;;;;;;6.07;3.70;;;;;;;;;;7387524;19;20174;-82
2022/06/14 21:46:11;;;;;;;10.30;5.77;;;;;;;;;;7375145;19;20161;-81
2022/06/14 21:48:38;;;;;;;7.60;4.03;;;;;;;;;;7382814;19;20169;-80
2022/06/14 21:51:06;;;;;;;5.73;3.03;;;;;;;;;;7385519;19;20145;-80
2022/06/14 21:53:32;;;;;;;3.57;2.50;;;;;;;;;;7395627;19;20219;-80
2022/06/14 21:56:07;;;;;;;5.10;2.37;;;;;;;;;;7388432;19;20137;-80
2022/06/14 21:58:36;;;;;;;3.20;2.37;;;;;;;;;;7393962;19;20469;-80
2022/06/14 22:01:11;;;;;;;2.70;2.30;;;;;;;;;;7384459;19;20151;-80
2022/06/14 22:03:54;;;;;;;4.30;2.50;;;;;;;;;;7384570;19;20156;-80
2022/06/14 22:06:23;;;;;;;3.50;2.20;;;;;;;;;;7386714;19;20246;-80
2022/06/14 22:08:49;;;;;;;5.17;2.50;;;;;;;;;;7379128;19;20197;-83
2022/06/14 22:11:15;;;;;;;4.43;2.83;;;;;;;;;;7382743;19;20150;-79
2022/06/14 22:13:43;;;;;;;4.27;2.83;;;;;;;;;;7382912;19;20216;-79
2022/06/14 22:16:13;;;;;;;3.97;2.73;;;;;;;;;;7397455;19;20137;-84
2022/06/14 22:18:39;;;;;;;4.33;2.50;;;;;;;;;;7420140;19;20138;-84
2022/06/14 22:21:05;;;;;;;4.30;2.67;;;;;;;;;;7412726;19;20473;-80
2022/06/14 22:24:37;;;;;;;2.93;2.37;;;;;;;;;;7393300;19;20140;-79
2022/06/14 22:26:17;;;;;;;2.77;2.43;;;;;;;;;;7393024;19;20156;-80
2022/06/14 22:28:43;;;;;;;3.83;2.60;;;;;;;;;;7388288;19;20152;-81
2022/06/14 22:31:09;;;;;;;3.57;2.53;;;;;;;;;;7387952;19;20158;-81
2022/06/14 22:33:35;;;;;;;4.80;2.83;;;;;;;;;;7385744;19;20148;-80
2022/06/14 22:36:08;;;;;;;4.10;2.60;;;;;;;;;;7383865;19;20634;-81
2022/06/14 22:38:34;;;;;;;3.93;2.30;;;;;;;;;;7383667;19;20148;-80
2022/06/14 22:41:00;;;;;;;3.93;2.60;;;;;;;;;;7385674;19;20164;-80
2022/06/14 22:43:26;;;;;;;4.97;3.30;;;;;;;;;;7377821;19;20160;-80
2022/06/14 22:45:52;;;;;;;5.87;2.40;;;;;;;;;;7385863;19;20638;-80
2022/06/14 22:48:18;;;;;;;3.80;2.33;;;;;;;;;;7388037;19;20200;-80
2022/06/14 22:50:44;;;;;;;3.50;2.60;;;;;;;;;;7379992;19;20567;-80
2022/06/14 22:53:14;;;;;;;4.63;2.77;;;;;;;;;;7382521;19;20232;-79
2022/06/14 22:55:45;;;;;;;3.30;2.40;;;;;;;;;;7385313;19;20784;-80
2022/06/14 22:58:20;;;;;;;4.77;2.80;;;;;;;;;;7380858;19;20156;-83
2022/06/14 23:00:46;;;;;;;6.20;2.60;;;;;;;;;;7384954;19;20461;-80
2022/06/14 23:03:12;;;;;;;4.23;2.47;;;;;;;;;;7391220;19;20212;-80
2022/06/14 23:05:37;;;;;;;3.10;2.23;;;;;;;;;;7393701;19;20148;-80
2022/06/14 23:08:04;;;;;;;3.97;2.53;;;;;;;;;;7387760;19;20152;-80
2022/06/14 23:10:30;;;;;;;7.27;3.67;;;;;;;;;;7390636;19;20169;-81
2022/06/14 23:12:57;;;;;;;3.33;2.20;;;;;;;;;;7393136;19;20140;-81
2022/06/14 23:15:23;;;;;;;4.40;2.60;;;;;;;;;;7395953;19;20125;-80
2022/06/14 23:17:49;;;;;;;3.23;2.50;;;;;;;;;;7394019;19;20181;-82
2022/06/14 23:20:15;;;;;;;3.37;2.47;;;;;;;;;;7397766;19;20493;-82
2022/06/14 23:22:41;;;;;;;3.83;2.50;;;;;;;;;;7392876;19;20149;-80
2022/06/14 23:25:08;;;;;;;4.43;2.80;;;;;;;;;;7399467;19;21073;-80
2022/06/14 23:27:34;;;;;;;3.23;2.43;;;;;;;;;;7398109;19;20173;-80
2022/06/14 23:30:00;;;;;;;4.27;2.50;;;;;;;;;;7399857;19;20152;-80
2022/06/14 23:32:26;;;;;;;3.67;2.83;;;;;;;;;;7402153;19;20520;-80
2022/06/14 23:34:52;;;;;;;5.40;2.67;;;;;;;;;;7398959;19;20248;-80
2022/06/14 23:37:18;;;;;;;3.57;2.80;;;;;;;;;;7397160;19;20638;-81
2022/06/14 23:39:44;;;;;;;2.50;2.23;;;;;;;;;;7394125;19;20584;-83
2022/06/14 23:42:10;;;;;;;7.70;2.70;;;;;;;;;;7380875;19;20164;-81
2022/06/14 23:44:36;;;;;;;3.60;2.60;;;;;;;;;;7384955;19;20182;-84
2022/06/14 23:47:02;;;;;;;4.07;2.47;;;;;;;;;;7390553;19;20207;-82
2022/06/14 23:49:27;;;;;;;3.23;2.43;;;;;;;;;;7391846;19;20553;-83
2022/06/14 23:51:53;;;;;;;4.73;2.93;;;;;;;;;;7388871;19;20149;-79
2022/06/14 23:54:20;;;;;;;3.23;2.60;;;;;;;;;;7393366;19;20149;-80
2022/06/14 23:56:46;;;;;;;3.37;2.10;;;;;;;;;;7389947;19;20177;-83
2022/06/14 23:59:12;;;;;;;7.30;2.60;;;;;;;;;;7390678;19;20164;-82
